Главная страница
METAR-TAF:

METAR-TAF

Аэропорты :

Брюссель, Бельгия

широта: 50-54N, долгота: 004-32E, высота над уровнем моря: 55 м

Текущие метеонаблюдения

Эта сводка был подготовлена 8 минут назад, в 13:20 UTC
Ветер 9 Узел от западный, изменяющийся между юго-западный и западно-северо-западный
Температура 17°C
Влажность 48%
Давление 1017 hPa
Видимость 10 км и более
Отдельные облака на высоте 4200 фута

METAR: EBBR 231320Z 26009KT 230V300 9999 SCT042 17/06 Q1017 NOSIG

Время: 15:28 (13:28 UTC)

Прогноз

Эта сводка был подготовлена 2 часа и 18 минут назад, в 11:10 UTC
Прогноз действительный с 23-го 12 UTC до 24-го 18 UTC
Ветер 12 Узел от западный
Видимость 10 км и более
Отдельные облака на высоте 4000 фута
Вероятность 30% :
временами
С 24-го 10 UTC до 24-го 14 UTC
Видимость: 4500 м
Отдельные облака на высоте 800 фута
Рассеянная облачность на высоте 1300 фута
небольшой дождь, Морось

TAF: EBBR 231110Z 2312/2418 27012KT 9999 SCT040 PROB30 TEMPO 2410/2414 4500 -RADZ SCT008 BKN013

Метеонаблюдения и прогнозы для более 4000 аэропортов (сводки METAR и TAF).

Имеющиеся станции представлены на карте желтыми и красными точками.

Чтобы увидеть название станции, наведите на нее мышь.

Затем щелкните, чтобы увидеть метеонаблюдения и метеопрогнозы.

Управление картой: чтобы увеличить масштаб, щелкните зеленые кнопки с черным крестиком; чтобы уменьшить масштаб, щелкните зеленую кнопку с тире; для просмотра соседних карт щелкайте зеленые стрелки.


METAR-TAF: